Scf Anadyr — D5MC3 — position and weather

sailwx.info

Track history (hours):
 
Tides and Currents Weather Stations Pressure Air Temp Water Temp Dewpoint Dewpoint Depression Visibility Wind Speed Wind Dir Waves Ship Positions

Scf Anadyr

Last reported at 2018-Feb-19 17:59 UTC. Time now 2018-Feb-19 18:12 UTC.
Position N 53°23' W 002°60'.

Length 183 m; draft 12 m.

Type: Tanker. MMSI: 636017655.

Date/timePositionNaut miles runAvg speedWind from/ knotsBaromVisibWave heightAir tempDewpointWater temp
2018-Feb-19 17:59N 53°23' W 002°60'0 0.0
2018-Feb-19 17:29N 53°23' W 002°60'0 0.0
2018-Feb-19 16:59N 53°23' W 002°60'0 0.0
2018-Feb-19 16:29N 53°23' W 002°60'0 0.0
2018-Feb-19 15:58N 53°23' W 002°60'0 0.0
2018-Feb-19 15:22N 53°23' W 002°60'0 0.0
2018-Feb-19 14:58N 53°23' W 002°60'0 0.0
2018-Feb-19 14:28N 53°23' W 002°60'0 0.0
2018-Feb-19 13:58N 53°23' W 002°60'0 0.0
2018-Feb-19 13:30N 53°23' W 002°60'0 0.0
2018-Feb-19 13:00N 53°23' W 002°60'0 0.0
2018-Feb-19 12:27N 53°23' W 002°60'0 0.0
2018-Feb-19 12:00N 53°23' W 002°60'0 0.0
2018-Feb-19 11:30N 53°23' W 002°60'0 0.0
2018-Feb-19 10:59N 53°23' W 002°60'0 0.0
2018-Feb-19 10:29N 53°23' W 002°60'0 0.0
2018-Feb-19 09:59N 53°23' W 002°60'0 0.0
2018-Feb-19 09:29N 53°23' W 002°60'0 0.0
2018-Feb-19 08:58N 53°23' W 002°60'0 0.0
2018-Feb-19 08:22N 53°23' W 002°60'0 0.0
2018-Feb-19 07:58N 53°23' W 002°60'0 0.0
2018-Feb-19 07:28N 53°23' W 002°60'0 0.0
2018-Feb-19 06:55N 53°23' W 002°60'0 0.0
2018-Feb-19 06:30N 53°23' W 002°60'0 0.0
2018-Feb-19 06:00N 53°23' W 002°60'0 0.0
2018-Feb-19 05:30N 53°23' W 002°60'0 0.0
2018-Feb-19 05:00N 53°23' W 002°60'0 0.0
2018-Feb-19 04:30N 53°23' W 002°60'0 0.0
2018-Feb-19 03:59N 53°23' W 002°60'0 0.0
2018-Feb-19 03:29N 53°23' W 002°60'0 0.0
2018-Feb-19 02:56N 53°23' W 002°60'0 0.0
2018-Feb-19 02:26N 53°23' W 002°60'0 0.0
2018-Feb-19 01:58N 53°23' W 002°60'0 0.1
2018-Feb-19 01:30N 53°23' W 002°60'1 1.1
2018-Feb-19 01:00N 53°23' W 003°00'2 4.9
2018-Feb-19 00:31N 53°25' W 003°01'4 8.3
2018-Feb-19 00:00N 53°29' W 003°05'4 8.1
2018-Feb-18 23:30N 53°32' W 003°10'5 9.7
2018-Feb-18 23:01N 53°32' W 003°18'4 8.2
2018-Feb-18 22:30N 53°32' W 003°25'4 7.1
2018-Feb-18 22:00N 53°31' W 003°31'4 7.7
2018-Feb-18 21:30N 53°30' W 003°37'4 8.6
2018-Feb-18 21:00N 53°30' W 003°44'4 8.8
2018-Feb-18 20:31N 53°29' W 003°52'4 8.7
2018-Feb-18 20:00N 53°28' W 003°59'56 3.3
2018-Feb-18 03:12N 54°07' W 005°07'313.5
2018-Feb-18 03:00N 54°09' W 005°07'713.4
2018-Feb-18 02:30N 54°16' W 005°09'713.2
2018-Feb-18 02:00N 54°23' W 005°10'613.0
2018-Feb-18 01:30N 54°29' W 005°12'612.9
2018-Feb-18 01:00N 54°35' W 005°13'713.7
2018-Feb-18 00:30N 54°42' W 005°15'713.7
2018-Feb-18 00:01N 54°49' W 005°17'715.0
2018-Feb-17 23:30N 54°54' W 005°26'815.2
2018-Feb-17 23:00N 54°60' W 005°35'815.6
2018-Feb-17 22:30N 55°05' W 005°45'917.0
2018-Feb-17 21:59N 55°12' W 005°54'817.8
2018-Feb-17 21:30N 55°19' W 006°04'815.9
2018-Feb-17 21:00N 55°22' W 006°16'715.0
2018-Feb-17 20:30N 55°25' W 006°28'815.4
2018-Feb-17 20:00N 55°31' W 006°36'714.6
2018-Feb-17 19:31N 55°37' W 006°44'713.9
2018-Feb-17 19:00N 55°43' W 006°51'813.2
2018-Feb-17 18:25N 55°50' W 006°58'  
2018-Feb-15 10:53N 57°54' E 005°54'511.6
2018-Feb-15 10:26N 57°50' E 006°01'511.3
2018-Feb-15 09:59N 57°47' E 006°09'511.4
2018-Feb-15 09:30N 57°44' E 006°18'511.1
2018-Feb-15 09:00N 57°41' E 006°27'5 9.8
2018-Feb-15 08:29N 57°40' E 006°36'4 9.1
2018-Feb-15 08:00N 57°40' E 006°44'5 9.0
2018-Feb-15 07:30N 57°40' E 006°53'4 8.5
2018-Feb-15 06:59N 57°39' E 007°01'10810.9
2018-Feb-14 21:05N 57°51' E 010°22'213.2
2018-Feb-14 20:56N 57°52' E 010°25'812.9
2018-Feb-14 20:19N 57°50' E 010°40'413.4
2018-Feb-14 20:00N 57°48' E 010°47'4 8.7
2018-Feb-14 19:30N 57°45' E 010°53'510.4
2018-Feb-14 19:00N 57°41' E 010°59'714.2
2018-Feb-14 18:31N 57°36' E 011°09'714.4
2018-Feb-14 18:01N 57°31' E 011°18'713.2
2018-Feb-14 17:30N 57°26' E 011°27'713.8
2018-Feb-14 17:00N 57°20' E 011°31'714.2
2018-Feb-14 16:30N 57°13' E 011°35'713.3
2018-Feb-14 16:00N 57°07' E 011°40'713.8
2018-Feb-14 15:30N 57°00' E 011°44'814.4
2018-Feb-14 14:57N 56°53' E 011°48'8912.8
2018-Feb-14 08:00N 55°29' E 010°55'613.2
2018-Feb-14 07:31N 55°23' E 011°01'713.0
2018-Feb-14 07:01N 55°17' E 011°04'611.6
2018-Feb-14 06:31N 55°11' E 011°04'612.5
2018-Feb-14 06:00N 55°05' E 010°60'612.8
2018-Feb-14 05:30N 54°59' E 010°58'612.2
2018-Feb-14 05:01N 54°54' E 010°52'511.0
2018-Feb-14 04:31N 54°49' E 010°50'612.3
2018-Feb-14 04:01N 54°43' E 010°47'611.5
2018-Feb-14 03:31N 54°38' E 010°53'713.1
2018-Feb-14 03:01N 54°36' E 011°03'713.2
2018-Feb-14 02:31N 54°35' E 011°15'713.6
2018-Feb-14 02:00N 54°32' E 011°25'713.3
2018-Feb-14 01:31N 54°29' E 011°36'713.0
2018-Feb-14 01:00N 54°26' E 011°46'712.6
2018-Feb-14 00:29N 54°26' E 011°57'613.0
2018-Feb-14 00:00N 54°27' E 012°08'611.9
2018-Feb-13 23:30N 54°32' E 012°13'611.1
2018-Feb-13 23:00N 54°37' E 012°16'6012.9
2018-Feb-13 18:22N 55°01' E 013°51'913.5
2018-Feb-13 17:43N 55°05' E 014°05'313.8
2018-Feb-13 17:30N 55°07' E 014°08'713.7
2018-Feb-13 17:01N 55°12' E 014°15'713.6
2018-Feb-13 16:30N 55°18' E 014°23'713.7
2018-Feb-13 16:01N 55°23' E 014°30'713.3
2018-Feb-13 15:29N 55°28' E 014°40'713.6
2018-Feb-13 14:58N 55°31' E 014°51'713.4
2018-Feb-13 14:25N 55°34' E 015°02'513.3
2018-Feb-13 14:00N 55°37' E 015°11'613.0
2018-Feb-13 13:31N 55°39' E 015°22'713.1
2018-Feb-13 13:01N 55°40' E 015°33'713.0
2018-Feb-13 12:30N 55°42' E 015°44'613.0
2018-Feb-13 12:00N 55°44' E 015°55'612.9
2018-Feb-13 11:31N 55°45' E 016°06'713.2
2018-Feb-13 11:01N 55°47' E 016°18'713.0
2018-Feb-13 10:30N 55°48' E 016°29'613.0
2018-Feb-13 10:01N 55°50' E 016°40'612.9
2018-Feb-13 09:30N 55°52' E 016°51'29811.8
2018-Feb-12 08:08N 59°35' E 023°01'313.7
2018-Feb-12 07:57N 59°36' E 023°06'614.0
2018-Feb-12 07:29N 59°37' E 023°18'713.9
2018-Feb-12 07:01N 59°39' E 023°31'713.9
2018-Feb-12 06:30N 59°41' E 023°44'713.7
2018-Feb-12 06:00N 59°43' E 023°57'714.1
2018-Feb-12 05:30N 59°45' E 024°10'714.2
2018-Feb-12 05:00N 59°47' E 024°24'713.9
2018-Feb-12 04:30N 59°49' E 024°37'714.4
2018-Feb-12 04:01N 59°50' E 024°51'714.1
2018-Feb-12 03:30N 59°52' E 025°05'713.9
2018-Feb-12 03:00N 59°53' E 025°19'714.2
2018-Feb-12 02:30N 59°54' E 025°33'714.0
2018-Feb-12 02:00N 59°55' E 025°46'1314.0
2018-Feb-12 01:03N 59°59' E 026°12'113.8
2018-Feb-12 01:01N 59°59' E 026°13'714.0
2018-Feb-12 00:30N 60°00' E 026°27'713.5
2018-Feb-12 00:00N 60°01' E 026°40'713.8
2018-Feb-11 23:30N 59°60' E 026°54'612.9
2018-Feb-11 23:00N 60°01' E 027°07'713.6
2018-Feb-11 22:31N 60°04' E 027°18'713.5
2018-Feb-11 22:00N 60°07' E 027°30'612.3
2018-Feb-11 21:31N 60°10' E 027°41'510.9
2018-Feb-11 21:00N 60°11' E 027°52'510.9
2018-Feb-11 20:30N 60°10' E 028°02'611.7
2018-Feb-11 20:00N 60°08' E 028°14'611.1
2018-Feb-11 19:30N 60°08' E 028°25'4 8.5
2018-Feb-11 19:00N 60°09' E 028°33'2 4.7
2018-Feb-11 18:30N 60°10' E 028°37'3 6.7
2018-Feb-11 18:00N 60°11' E 028°44'4 7.7
2018-Feb-11 17:30N 60°14' E 028°47'3 6.0
2018-Feb-11 17:00N 60°17' E 028°46'3 6.6
2018-Feb-11 16:30N 60°20' E 028°42'0 0.5
2018-Feb-11 16:00N 60°20' E 028°42'0 0.0
2018-Feb-11 15:30N 60°20' E 028°42'0 0.0
2018-Feb-11 15:00N 60°20' E 028°42'0 0.0
2018-Feb-11 14:30N 60°20' E 028°42'0 0.0
2018-Feb-11 13:59N 60°20' E 028°42'0 0.0
2018-Feb-11 13:29N 60°20' E 028°42'0 0.0
2018-Feb-11 12:59N 60°20' E 028°42'0 0.0
2018-Feb-11 12:29N 60°20' E 028°42'0 0.0
2018-Feb-11 11:56N 60°20' E 028°42'0 0.0
2018-Feb-11 11:28N 60°20' E 028°42'0 0.0
2018-Feb-11 10:58N 60°20' E 028°42'0 0.0
2018-Feb-11 10:28N 60°20' E 028°42'0 0.0
2018-Feb-11 09:58N 60°20' E 028°42'0 0.0
2018-Feb-11 09:28N 60°20' E 028°42'0 0.0
2018-Feb-11 09:00N 60°20' E 028°42'0 0.0
2018-Feb-11 08:28N 60°20' E 028°42'0 0.0
2018-Feb-11 08:00N 60°20' E 028°42'0 0.0
2018-Feb-11 07:30N 60°20' E 028°42'0 0.0
2018-Feb-11 06:59N 60°20' E 028°42'0 0.0
2018-Feb-11 06:29N 60°20' E 028°42'0 0.0
2018-Feb-11 05:56N 60°20' E 028°42'0 0.0
2018-Feb-11 05:29N 60°20' E 028°42'0 0.0
2018-Feb-11 04:59N 60°20' E 028°42'0 0.0
2018-Feb-11 04:28N 60°20' E 028°42'0 0.0
2018-Feb-11 03:58N 60°20' E 028°42'0 0.0
2018-Feb-11 03:28N 60°20' E 028°42'0 0.0
2018-Feb-11 02:58N 60°20' E 028°42'0 0.0
2018-Feb-11 02:28N 60°20' E 028°42'0 0.0
2018-Feb-11 02:00N 60°20' E 028°42'0 0.0
2018-Feb-11 01:30N 60°20' E 028°42'0 0.0
2018-Feb-11 01:00N 60°20' E 028°42'0 0.0
2018-Feb-11 00:30N 60°20' E 028°42'0 0.0
2018-Feb-10 23:59N 60°20' E 028°42'0 0.0
2018-Feb-10 23:29N 60°20' E 028°42'0 0.0
2018-Feb-10 22:59N 60°20' E 028°42'0 0.0
2018-Feb-10 22:29N 60°20' E 028°42'0 0.0
2018-Feb-10 21:59N 60°20' E 028°42'0 0.0
2018-Feb-10 21:28N 60°20' E 028°42'0 0.0
2018-Feb-10 20:55N 60°20' E 028°42'0 0.0
2018-Feb-10 20:25N 60°20' E 028°42'0 0.0
2018-Feb-10 19:55N 60°20' E 028°42'0 0.0
2018-Feb-10 19:28N 60°20' E 028°42'0 0.0
2018-Feb-10 19:00N 60°20' E 028°42'0 0.0
2018-Feb-10 18:30N 60°20' E 028°42'0 0.0
2018-Feb-10 18:00N 60°20' E 028°42'0 0.0
2018-Feb-10 17:30N 60°20' E 028°42'0 0.0
2018-Feb-10 16:59N 60°20' E 028°42'0 0.0
2018-Feb-10 16:29N 60°20' E 028°42'0 0.0
2018-Feb-10 15:59N 60°20' E 028°42'0 0.0
2018-Feb-10 15:29N 60°20' E 028°42'0 0.0
2018-Feb-10 14:59N 60°20' E 028°42'0 0.0
2018-Feb-10 14:28N 60°20' E 028°42'0 0.0
2018-Feb-10 13:55N 60°20' E 028°42'0 0.0
2018-Feb-10 13:25N 60°20' E 028°42'0 0.0
2018-Feb-10 12:58N 60°20' E 028°42'0 0.0
2018-Feb-10 12:30N 60°20' E 028°42'0 0.0
2018-Feb-10 12:00N 60°20' E 028°42'0 0.0
2018-Feb-10 11:30N 60°20' E 028°42'0 0.0
2018-Feb-10 11:00N 60°20' E 028°42'0 0.0
2018-Feb-10 10:30N 60°20' E 028°42'0 0.0
2018-Feb-10 09:58N 60°20' E 028°42'0 0.0
2018-Feb-10 09:29N 60°20' E 028°42'0 0.0
2018-Feb-10 08:59N 60°20' E 028°42'0 0.0
2018-Feb-10 08:29N 60°20' E 028°42'0 0.0
2018-Feb-10 07:59N 60°20' E 028°42'0 0.0
2018-Feb-10 07:28N 60°20' E 028°42'0 0.0
2018-Feb-10 06:58N 60°20' E 028°42'0 0.0
2018-Feb-10 06:28N 60°20' E 028°42'0 0.0
2018-Feb-10 05:58N 60°20' E 028°42'0 0.0
2018-Feb-10 05:30N 60°20' E 028°42'0 0.6
2018-Feb-10 05:00N 60°20' E 028°41'0 0.7
2018-Feb-10 04:30N 60°20' E 028°41'3 5.7
2018-Feb-10 04:00N 60°18' E 028°45'4 7.6
2018-Feb-10 03:30N 60°14' E 028°47'2 4.5
2018-Feb-10 03:00N 60°12' E 028°45'3 5.7
2018-Feb-10 02:29N 60°10' E 028°41'2 4.4
2018-Feb-10 02:00N 60°09' E 028°37'3 5.0
2018-Feb-10 01:30N 60°08' E 028°33'3 5.6
2018-Feb-10 01:00N 60°06' E 028°28'2 4.4
2018-Feb-10 00:30N 60°05' E 028°24'2 4.3
2018-Feb-10 00:00N 60°05' E 028°20'2 4.8
2018-Feb-09 23:30N 60°07' E 028°16'2 4.8
2018-Feb-09 23:00N 60°08' E 028°11'1 4.4
2018-Feb-09 22:46N 60°08' E 028°09'1 5.0
2018-Feb-09 22:30N 60°08' E 028°07'3 5.0
2018-Feb-09 22:00N 60°09' E 028°02'3 5.1
2018-Feb-09 21:30N 60°09' E 027°57'2 4.8
2018-Feb-09 21:00N 60°10' E 027°52'3 5.2
2018-Feb-09 20:30N 60°11' E 027°47'10 5.1
2018-Feb-09 18:30N 60°06' E 027°29'  
Track history (hours):
 
Tides and Currents Weather Stations Pressure Air Temp Water Temp Dewpoint Dewpoint Depression Visibility Wind Speed Wind Dir Waves Ship Positions

Scf Anadyr

Last reported at 2018-Feb-19 17:59 UTC. Time now 2018-Feb-19 18:12 UTC.
Position N 53°23' W 002°60'.

Length 183 m; draft 12 m.

Type: Tanker. MMSI: 636017655.

Date/timePositionNaut miles runAvg speedWind from/ knotsBaromVisibWave heightAir tempDewpointWater temp
2018-Feb-19 17:59N 53°23' W 002°60'0 0.0
2018-Feb-19 17:29N 53°23' W 002°60'0 0.0
2018-Feb-19 16:59N 53°23' W 002°60'0 0.0
2018-Feb-19 16:29N 53°23' W 002°60'0 0.0
2018-Feb-19 15:58N 53°23' W 002°60'0 0.0
2018-Feb-19 15:22N 53°23' W 002°60'0 0.0
2018-Feb-19 14:58N 53°23' W 002°60'0 0.0
2018-Feb-19 14:28N 53°23' W 002°60'0 0.0
2018-Feb-19 13:58N 53°23' W 002°60'0 0.0
2018-Feb-19 13:30N 53°23' W 002°60'0 0.0
2018-Feb-19 13:00N 53°23' W 002°60'0 0.0
2018-Feb-19 12:27N 53°23' W 002°60'0 0.0
2018-Feb-19 12:00N 53°23' W 002°60'0 0.0
2018-Feb-19 11:30N 53°23' W 002°60'0 0.0
2018-Feb-19 10:59N 53°23' W 002°60'0 0.0
2018-Feb-19 10:29N 53°23' W 002°60'0 0.0
2018-Feb-19 09:59N 53°23' W 002°60'0 0.0
2018-Feb-19 09:29N 53°23' W 002°60'0 0.0
2018-Feb-19 08:58N 53°23' W 002°60'0 0.0
2018-Feb-19 08:22N 53°23' W 002°60'0 0.0
2018-Feb-19 07:58N 53°23' W 002°60'0 0.0
2018-Feb-19 07:28N 53°23' W 002°60'0 0.0
2018-Feb-19 06:55N 53°23' W 002°60'0 0.0
2018-Feb-19 06:30N 53°23' W 002°60'0 0.0
2018-Feb-19 06:00N 53°23' W 002°60'0 0.0
2018-Feb-19 05:30N 53°23' W 002°60'0 0.0
2018-Feb-19 05:00N 53°23' W 002°60'0 0.0
2018-Feb-19 04:30N 53°23' W 002°60'0 0.0
2018-Feb-19 03:59N 53°23' W 002°60'0 0.0
2018-Feb-19 03:29N 53°23' W 002°60'0 0.0
2018-Feb-19 02:56N 53°23' W 002°60'0 0.0
2018-Feb-19 02:26N 53°23' W 002°60'0 0.0
2018-Feb-19 01:58N 53°23' W 002°60'0 0.1
2018-Feb-19 01:30N 53°23' W 002°60'1 1.1
2018-Feb-19 01:00N 53°23' W 003°00'2 4.9
2018-Feb-19 00:31N 53°25' W 003°01'4 8.3
2018-Feb-19 00:00N 53°29' W 003°05'4 8.1
2018-Feb-18 23:30N 53°32' W 003°10'5 9.7
2018-Feb-18 23:01N 53°32' W 003°18'4 8.2
2018-Feb-18 22:30N 53°32' W 003°25'4 7.1
2018-Feb-18 22:00N 53°31' W 003°31'4 7.7
2018-Feb-18 21:30N 53°30' W 003°37'4 8.6
2018-Feb-18 21:00N 53°30' W 003°44'4 8.8
2018-Feb-18 20:31N 53°29' W 003°52'4 8.7
2018-Feb-18 20:00N 53°28' W 003°59'56 3.3
2018-Feb-18 03:12N 54°07' W 005°07'313.5
2018-Feb-18 03:00N 54°09' W 005°07'713.4
2018-Feb-18 02:30N 54°16' W 005°09'713.2
2018-Feb-18 02:00N 54°23' W 005°10'613.0
2018-Feb-18 01:30N 54°29' W 005°12'612.9
2018-Feb-18 01:00N 54°35' W 005°13'713.7
2018-Feb-18 00:30N 54°42' W 005°15'713.7
2018-Feb-18 00:01N 54°49' W 005°17'715.0
2018-Feb-17 23:30N 54°54' W 005°26'815.2
2018-Feb-17 23:00N 54°60' W 005°35'815.6
2018-Feb-17 22:30N 55°05' W 005°45'917.0
2018-Feb-17 21:59N 55°12' W 005°54'817.8
2018-Feb-17 21:30N 55°19' W 006°04'815.9
2018-Feb-17 21:00N 55°22' W 006°16'715.0
2018-Feb-17 20:30N 55°25' W 006°28'815.4
2018-Feb-17 20:00N 55°31' W 006°36'714.6
2018-Feb-17 19:31N 55°37' W 006°44'713.9
2018-Feb-17 19:00N 55°43' W 006°51'813.2
2018-Feb-17 18:25N 55°50' W 006°58'  
2018-Feb-15 10:53N 57°54' E 005°54'511.6
2018-Feb-15 10:26N 57°50' E 006°01'511.3
2018-Feb-15 09:59N 57°47' E 006°09'511.4
2018-Feb-15 09:30N 57°44' E 006°18'511.1
2018-Feb-15 09:00N 57°41' E 006°27'5 9.8
2018-Feb-15 08:29N 57°40' E 006°36'4 9.1
2018-Feb-15 08:00N 57°40' E 006°44'5 9.0
2018-Feb-15 07:30N 57°40' E 006°53'4 8.5
2018-Feb-15 06:59N 57°39' E 007°01'10810.9
2018-Feb-14 21:05N 57°51' E 010°22'213.2
2018-Feb-14 20:56N 57°52' E 010°25'812.9
2018-Feb-14 20:19N 57°50' E 010°40'413.4
2018-Feb-14 20:00N 57°48' E 010°47'4 8.7
2018-Feb-14 19:30N 57°45' E 010°53'510.4
2018-Feb-14 19:00N 57°41' E 010°59'714.2
2018-Feb-14 18:31N 57°36' E 011°09'714.4
2018-Feb-14 18:01N 57°31' E 011°18'713.2
2018-Feb-14 17:30N 57°26' E 011°27'713.8
2018-Feb-14 17:00N 57°20' E 011°31'714.2
2018-Feb-14 16:30N 57°13' E 011°35'713.3
2018-Feb-14 16:00N 57°07' E 011°40'713.8
2018-Feb-14 15:30N 57°00' E 011°44'814.4
2018-Feb-14 14:57N 56°53' E 011°48'8912.8
2018-Feb-14 08:00N 55°29' E 010°55'613.2
2018-Feb-14 07:31N 55°23' E 011°01'713.0
2018-Feb-14 07:01N 55°17' E 011°04'611.6
2018-Feb-14 06:31N 55°11' E 011°04'612.5
2018-Feb-14 06:00N 55°05' E 010°60'612.8
2018-Feb-14 05:30N 54°59' E 010°58'612.2
2018-Feb-14 05:01N 54°54' E 010°52'511.0
2018-Feb-14 04:31N 54°49' E 010°50'612.3
2018-Feb-14 04:01N 54°43' E 010°47'611.5
2018-Feb-14 03:31N 54°38' E 010°53'713.1
2018-Feb-14 03:01N 54°36' E 011°03'713.2
2018-Feb-14 02:31N 54°35' E 011°15'713.6
2018-Feb-14 02:00N 54°32' E 011°25'713.3
2018-Feb-14 01:31N 54°29' E 011°36'713.0
2018-Feb-14 01:00N 54°26' E 011°46'712.6
2018-Feb-14 00:29N 54°26' E 011°57'613.0
2018-Feb-14 00:00N 54°27' E 012°08'611.9
2018-Feb-13 23:30N 54°32' E 012°13'611.1
2018-Feb-13 23:00N 54°37' E 012°16'6012.9
2018-Feb-13 18:22N 55°01' E 013°51'913.5
2018-Feb-13 17:43N 55°05' E 014°05'313.8
2018-Feb-13 17:30N 55°07' E 014°08'713.7
2018-Feb-13 17:01N 55°12' E 014°15'713.6
2018-Feb-13 16:30N 55°18' E 014°23'713.7
2018-Feb-13 16:01N 55°23' E 014°30'713.3
2018-Feb-13 15:29N 55°28' E 014°40'713.6
2018-Feb-13 14:58N 55°31' E 014°51'713.4
2018-Feb-13 14:25N 55°34' E 015°02'513.3
2018-Feb-13 14:00N 55°37' E 015°11'613.0
2018-Feb-13 13:31N 55°39' E 015°22'713.1
2018-Feb-13 13:01N 55°40' E 015°33'713.0
2018-Feb-13 12:30N 55°42' E 015°44'613.0
2018-Feb-13 12:00N 55°44' E 015°55'612.9
2018-Feb-13 11:31N 55°45' E 016°06'713.2
2018-Feb-13 11:01N 55°47' E 016°18'713.0
2018-Feb-13 10:30N 55°48' E 016°29'613.0
2018-Feb-13 10:01N 55°50' E 016°40'612.9
2018-Feb-13 09:30N 55°52' E 016°51'29811.8
2018-Feb-12 08:08N 59°35' E 023°01'313.7
2018-Feb-12 07:57N 59°36' E 023°06'614.0
2018-Feb-12 07:29N 59°37' E 023°18'713.9
2018-Feb-12 07:01N 59°39' E 023°31'713.9
2018-Feb-12 06:30N 59°41' E 023°44'713.7
2018-Feb-12 06:00N 59°43' E 023°57'714.1
2018-Feb-12 05:30N 59°45' E 024°10'714.2
2018-Feb-12 05:00N 59°47' E 024°24'713.9
2018-Feb-12 04:30N 59°49' E 024°37'714.4
2018-Feb-12 04:01N 59°50' E 024°51'714.1
2018-Feb-12 03:30N 59°52' E 025°05'713.9
2018-Feb-12 03:00N 59°53' E 025°19'714.2
2018-Feb-12 02:30N 59°54' E 025°33'714.0
2018-Feb-12 02:00N 59°55' E 025°46'1314.0
2018-Feb-12 01:03N 59°59' E 026°12'113.8
2018-Feb-12 01:01N 59°59' E 026°13'714.0
2018-Feb-12 00:30N 60°00' E 026°27'713.5
2018-Feb-12 00:00N 60°01' E 026°40'713.8
2018-Feb-11 23:30N 59°60' E 026°54'612.9
2018-Feb-11 23:00N 60°01' E 027°07'713.6
2018-Feb-11 22:31N 60°04' E 027°18'713.5
2018-Feb-11 22:00N 60°07' E 027°30'612.3
2018-Feb-11 21:31N 60°10' E 027°41'510.9
2018-Feb-11 21:00N 60°11' E 027°52'510.9
2018-Feb-11 20:30N 60°10' E 028°02'611.7
2018-Feb-11 20:00N 60°08' E 028°14'611.1
2018-Feb-11 19:30N 60°08' E 028°25'4 8.5
2018-Feb-11 19:00N 60°09' E 028°33'2 4.7
2018-Feb-11 18:30N 60°10' E 028°37'3 6.7
2018-Feb-11 18:00N 60°11' E 028°44'4 7.7
2018-Feb-11 17:30N 60°14' E 028°47'3 6.0
2018-Feb-11 17:00N 60°17' E 028°46'3 6.6
2018-Feb-11 16:30N 60°20' E 028°42'0 0.5
2018-Feb-11 16:00N 60°20' E 028°42'0 0.0
2018-Feb-11 15:30N 60°20' E 028°42'0 0.0
2018-Feb-11 15:00N 60°20' E 028°42'0 0.0
2018-Feb-11 14:30N 60°20' E 028°42'0 0.0
2018-Feb-11 13:59N 60°20' E 028°42'0 0.0
2018-Feb-11 13:29N 60°20' E 028°42'0 0.0
2018-Feb-11 12:59N 60°20' E 028°42'0 0.0
2018-Feb-11 12:29N 60°20' E 028°42'0 0.0
2018-Feb-11 11:56N 60°20' E 028°42'0 0.0
2018-Feb-11 11:28N 60°20' E 028°42'0 0.0
2018-Feb-11 10:58N 60°20' E 028°42'0 0.0
2018-Feb-11 10:28N 60°20' E 028°42'0 0.0
2018-Feb-11 09:58N 60°20' E 028°42'0 0.0
2018-Feb-11 09:28N 60°20' E 028°42'0 0.0
2018-Feb-11 09:00N 60°20' E 028°42'0 0.0
2018-Feb-11 08:28N 60°20' E 028°42'0 0.0
2018-Feb-11 08:00N 60°20' E 028°42'0 0.0
2018-Feb-11 07:30N 60°20' E 028°42'0 0.0
2018-Feb-11 06:59N 60°20' E 028°42'0 0.0
2018-Feb-11 06:29N 60°20' E 028°42'0 0.0
2018-Feb-11 05:56N 60°20' E 028°42'0 0.0
2018-Feb-11 05:29N 60°20' E 028°42'0 0.0
2018-Feb-11 04:59N 60°20' E 028°42'0 0.0
2018-Feb-11 04:28N 60°20' E 028°42'0 0.0
2018-Feb-11 03:58N 60°20' E 028°42'0 0.0
2018-Feb-11 03:28N 60°20' E 028°42'0 0.0
2018-Feb-11 02:58N 60°20' E 028°42'0 0.0
2018-Feb-11 02:28N 60°20' E 028°42'0 0.0
2018-Feb-11 02:00N 60°20' E 028°42'0 0.0
2018-Feb-11 01:30N 60°20' E 028°42'0 0.0
2018-Feb-11 01:00N 60°20' E 028°42'0 0.0
2018-Feb-11 00:30N 60°20' E 028°42'0 0.0
2018-Feb-10 23:59N 60°20' E 028°42'0 0.0
2018-Feb-10 23:29N 60°20' E 028°42'0 0.0
2018-Feb-10 22:59N 60°20' E 028°42'0 0.0
2018-Feb-10 22:29N 60°20' E 028°42'0 0.0
2018-Feb-10 21:59N 60°20' E 028°42'0 0.0
2018-Feb-10 21:28N 60°20' E 028°42'0 0.0
2018-Feb-10 20:55N 60°20' E 028°42'0 0.0
2018-Feb-10 20:25N 60°20' E 028°42'0 0.0
2018-Feb-10 19:55N 60°20' E 028°42'0 0.0
2018-Feb-10 19:28N 60°20' E 028°42'0 0.0
2018-Feb-10 19:00N 60°20' E 028°42'0 0.0
2018-Feb-10 18:30N 60°20' E 028°42'0 0.0
2018-Feb-10 18:00N 60°20' E 028°42'0 0.0
2018-Feb-10 17:30N 60°20' E 028°42'0 0.0
2018-Feb-10 16:59N 60°20' E 028°42'0 0.0
2018-Feb-10 16:29N 60°20' E 028°42'0 0.0
2018-Feb-10 15:59N 60°20' E 028°42'0 0.0
2018-Feb-10 15:29N 60°20' E 028°42'0 0.0
2018-Feb-10 14:59N 60°20' E 028°42'0 0.0
2018-Feb-10 14:28N 60°20' E 028°42'0 0.0
2018-Feb-10 13:55N 60°20' E 028°42'0 0.0
2018-Feb-10 13:25N 60°20' E 028°42'0 0.0
2018-Feb-10 12:58N 60°20' E 028°42'0 0.0
2018-Feb-10 12:30N 60°20' E 028°42'0 0.0
2018-Feb-10 12:00N 60°20' E 028°42'0 0.0
2018-Feb-10 11:30N 60°20' E 028°42'0 0.0
2018-Feb-10 11:00N 60°20' E 028°42'0 0.0
2018-Feb-10 10:30N 60°20' E 028°42'0 0.0
2018-Feb-10 09:58N 60°20' E 028°42'0 0.0
2018-Feb-10 09:29N 60°20' E 028°42'0 0.0
2018-Feb-10 08:59N 60°20' E 028°42'0 0.0
2018-Feb-10 08:29N 60°20' E 028°42'0 0.0
2018-Feb-10 07:59N 60°20' E 028°42'0 0.0
2018-Feb-10 07:28N 60°20' E 028°42'0 0.0
2018-Feb-10 06:58N 60°20' E 028°42'0 0.0
2018-Feb-10 06:28N 60°20' E 028°42'0 0.0
2018-Feb-10 05:58N 60°20' E 028°42'0 0.0
2018-Feb-10 05:30N 60°20' E 028°42'0 0.6
2018-Feb-10 05:00N 60°20' E 028°41'0 0.7
2018-Feb-10 04:30N 60°20' E 028°41'3 5.7
2018-Feb-10 04:00N 60°18' E 028°45'4 7.6
2018-Feb-10 03:30N 60°14' E 028°47'2 4.5
2018-Feb-10 03:00N 60°12' E 028°45'3 5.7
2018-Feb-10 02:29N 60°10' E 028°41'2 4.4
2018-Feb-10 02:00N 60°09' E 028°37'3 5.0
2018-Feb-10 01:30N 60°08' E 028°33'3 5.6
2018-Feb-10 01:00N 60°06' E 028°28'2 4.4
2018-Feb-10 00:30N 60°05' E 028°24'2 4.3
2018-Feb-10 00:00N 60°05' E 028°20'2 4.8
2018-Feb-09 23:30N 60°07' E 028°16'2 4.8
2018-Feb-09 23:00N 60°08' E 028°11'1 4.4
2018-Feb-09 22:46N 60°08' E 028°09'1 5.0
2018-Feb-09 22:30N 60°08' E 028°07'3 5.0
2018-Feb-09 22:00N 60°09' E 028°02'3 5.1
2018-Feb-09 21:30N 60°09' E 027°57'2 4.8
2018-Feb-09 21:00N 60°10' E 027°52'3 5.2
2018-Feb-09 20:30N 60°11' E 027°47'10 5.1
2018-Feb-09 18:30N 60°06' E 027°29'  

Dump ship's entire track history